Wetterdaten: Woche 20.04.15 - 26.04.15 (KW17)
Datum Zeit Temperatur Luftfeuchte Luftdruck Niederschlag Windrichtung Sonnenschein Solar Wind
20.04.2015 00:00 5,5 C 66 % 1019,7 hPa 0,0 l/m NO 0,00 h 0 W/m 2,9 km/h (1 Bft)
20.04.2015 01:00 5,2 C 65 % 1020,0 hPa 0,0 l/m NO 0,00 h 0 W/m 5,7 km/h (1 Bft)
20.04.2015 02:00 4,9 C 66 % 1020,2 hPa 0,0 l/m NO 0,00 h 0 W/m 4,7 km/h (1 Bft)
20.04.2015 03:00 4,2 C 70 % 1020,2 hPa 0,0 l/m NO 0,00 h 0 W/m 3,6 km/h (1 Bft)
20.04.2015 04:00 3,4 C 74 % 1020,6 hPa 0,0 l/m NO 0,00 h 0 W/m 4,5 km/h (1 Bft)
20.04.2015 05:00 3,0 C 76 % 1020,8 hPa 0,0 l/m NO 0,00 h 0 W/m 6,0 km/h (2 Bft)
20.04.2015 06:00 2,7 C 77 % 1021,1 hPa 0,0 l/m N 0,00 h 11 W/m 5,9 km/h (2 Bft)
20.04.2015 07:00 4,0 C 75 % 1021,5 hPa 0,0 l/m N-NO 0,42 h 91 W/m 1,3 km/h (1 Bft)
20.04.2015 08:00 6,9 C 66 % 1022,0 hPa 0,0 l/m N-NO 1,00 h 262 W/m 7,5 km/h (2 Bft)
20.04.2015 09:00 9,4 C 59 % 1022,4 hPa 0,0 l/m NO 1,00 h 437 W/m 10,1 km/h (2 Bft)
20.04.2015 10:00 11,7 C 54 % 1022,4 hPa 0,0 l/m NO 1,00 h 596 W/m 11,4 km/h (2 Bft)
20.04.2015 11:00 13,5 C 46 % 1022,6 hPa 0,0 l/m O 1,00 h 721 W/m 18,1 km/h (3 Bft)
20.04.2015 12:00 14,5 C 43 % 1022,4 hPa 0,0 l/m NO 1,00 h 750 W/m 16,5 km/h (3 Bft)
20.04.2015 13:00 15,5 C 39 % 1022,4 hPa 0,0 l/m NO 1,00 h 806 W/m 17,4 km/h (3 Bft)
20.04.2015 14:00 16,6 C 35 % 1022,1 hPa 0,0 l/m NO 1,00 h 800 W/m 16,8 km/h (3 Bft)
20.04.2015 15:00 17,1 C 30 % 1021,9 hPa 0,0 l/m NO 1,00 h 732 W/m 17,7 km/h (3 Bft)
20.04.2015 16:00 17,4 C 34 % 1021,6 hPa 0,0 l/m NO 1,00 h 598 W/m 20,1 km/h (4 Bft)
20.04.2015 17:00 17,5 C 36 % 1021,5 hPa 0,0 l/m O-NO 1,00 h 446 W/m 17,6 km/h (3 Bft)
20.04.2015 18:00 16,9 C 34 % 1021,7 hPa 0,0 l/m O 1,00 h 274 W/m 14,1 km/h (3 Bft)
20.04.2015 19:00 15,5 C 38 % 1022,1 hPa 0,0 l/m O 0,25 h 53 W/m 11,4 km/h (2 Bft)
20.04.2015 20:00 13,1 C 49 % 1022,9 hPa 0,0 l/m N 0,00 h 8 W/m 2,9 km/h (1 Bft)
20.04.2015 21:00 10,6 C 58 % 1023,8 hPa 0,0 l/m O 0,00 h 0 W/m 2,3 km/h (1 Bft)
20.04.2015 22:00 9,4 C 63 % 1024,2 hPa 0,0 l/m O 0,00 h 0 W/m 5,1 km/h (1 Bft)
20.04.2015 23:00 8,5 C 68 % 1024,4 hPa 0,0 l/m N 0,00 h 0 W/m 1,2 km/h (1 Bft)
21.04.2015 00:00 7,1 C 74 % 1024,6 hPa 0,0 l/m N 0,00 h 0 W/m 0,0 km/h (0 Bft)
21.04.2015 01:00 6,0 C 79 % 1024,9 hPa 0,0 l/m N 0,00 h 0 W/m 0,0 km/h (0 Bft)
21.04.2015 02:00 5,3 C 82 % 1024,9 hPa 0,0 l/m N 0,00 h 0 W/m 0,0 km/h (0 Bft)
21.04.2015 03:00 4,7 C 81 % 1024,9 hPa 0,0 l/m N 0,00 h 0 W/m 0,1 km/h (0 Bft)
21.04.2015 04:00 4,2 C 82 % 1025,0 hPa 0,0 l/m O 0,00 h 0 W/m 2,9 km/h (1 Bft)
21.04.2015 05:00 4,2 C 83 % 1025,1 hPa 0,0 l/m O 0,00 h 0 W/m 3,2 km/h (1 Bft)
21.04.2015 06:00 4,2 C 84 % 1025,4 hPa 0,0 l/m N 0,00 h 14 W/m 3,2 km/h (1 Bft)
21.04.2015 07:00 6,2 C 78 % 1026,1 hPa 0,0 l/m O 0,17 h 86 W/m 2,3 km/h (1 Bft)
21.04.2015 08:00 9,2 C 68 % 1026,7 hPa 0,0 l/m NO 1,00 h 258 W/m 7,5 km/h (2 Bft)
21.04.2015 09:00 11,8 C 61 % 1026,8 hPa 0,0 l/m NO 1,00 h 436 W/m 4,8 km/h (1 Bft)
21.04.2015 10:00 14,1 C 52 % 1026,9 hPa 0,0 l/m O-NO 1,00 h 591 W/m 12,3 km/h (3 Bft)
21.04.2015 11:00 15,0 C 48 % 1027,2 hPa 0,0 l/m NO 1,00 h 722 W/m 14,1 km/h (3 Bft)
21.04.2015 12:00 16,5 C 44 % 1027,1 hPa 0,0 l/m NO 1,00 h 804 W/m 14,0 km/h (3 Bft)
21.04.2015 13:00 18,0 C 39 % 1026,6 hPa 0,0 l/m O-SO 1,00 h 836 W/m 14,0 km/h (3 Bft)
21.04.2015 14:00 19,1 C 37 % 1026,2 hPa 0,0 l/m O-NO 1,00 h 809 W/m 12,5 km/h (3 Bft)
21.04.2015 15:00 19,6 C 33 % 1025,6 hPa 0,0 l/m N-NO 1,00 h 739 W/m 14,4 km/h (3 Bft)
21.04.2015 16:00 20,1 C 32 % 1025,3 hPa 0,0 l/m NO 1,00 h 620 W/m 11,1 km/h (2 Bft)
21.04.2015 17:00 20,2 C 29 % 1025,0 hPa 0,0 l/m NO 1,00 h 469 W/m 10,3 km/h (2 Bft)
21.04.2015 18:00 19,8 C 27 % 1024,8 hPa 0,0 l/m O-NO 1,00 h 298 W/m 8,4 km/h (2 Bft)
21.04.2015 19:00 18,4 C 32 % 1024,7 hPa 0,0 l/m N 0,33 h 64 W/m 3,2 km/h (1 Bft)
21.04.2015 20:00 14,2 C 47 % 1025,1 hPa 0,0 l/m N 0,00 h 8 W/m 1,1 km/h (0 Bft)
21.04.2015 21:00 11,7 C 57 % 1025,6 hPa 0,0 l/m N 0,00 h 0 W/m 0,0 km/h (0 Bft)
21.04.2015 22:00 11,4 C 57 % 1025,9 hPa 0,0 l/m O-NO 0,00 h 0 W/m 1,6 km/h (1 Bft)
21.04.2015 23:00 9,5 C 64 % 1026,1 hPa 0,0 l/m N 0,00 h 0 W/m 0,0 km/h (0 Bft)
22.04.2015 00:00 8,1 C 70 % 1026,0 hPa 0,0 l/m N 0,00 h 0 W/m 0,0 km/h (0 Bft)
22.04.2015 01:00 7,3 C 75 % 1025,7 hPa 0,0 l/m N 0,00 h 0 W/m 0,0 km/h (0 Bft)
22.04.2015 02:00 6,2 C 79 % 1025,3 hPa 0,0 l/m N 0,00 h 0 W/m 0,0 km/h (0 Bft)
22.04.2015 03:00 5,5 C 80 % 1025,0 hPa 0,0 l/m N 0,00 h 0 W/m 0,0 km/h (0 Bft)
22.04.2015 04:00 4,7 C 81 % 1024,6 hPa 0,0 l/m N 0,00 h 0 W/m 0,0 km/h (0 Bft)
22.04.2015 05:00 4,0 C 83 % 1024,1 hPa 0,0 l/m N 0,00 h 0 W/m 0,0 km/h (0 Bft)
22.04.2015 06:00 3,3 C 85 % 1024,0 hPa 0,0 l/m N 0,00 h 12 W/m 0,1 km/h (0 Bft)
22.04.2015 07:00 4,9 C 86 % 1023,8 hPa 0,0 l/m N 0,25 h 85 W/m 0,0 km/h (0 Bft)
22.04.2015 08:00 9,2 C 72 % 1023,4 hPa 0,0 l/m O-NO 1,00 h 260 W/m 1,6 km/h (1 Bft)
22.04.2015 09:00 12,6 C 60 % 1022,8 hPa 0,0 l/m O-NO 1,00 h 441 W/m 3,7 km/h (1 Bft)
22.04.2015 10:00 15,0 C 56 % 1022,1 hPa 0,0 l/m S-SO 1,00 h 583 W/m 8,2 km/h (2 Bft)
22.04.2015 11:00 17,5 C 44 % 1021,5 hPa 0,0 l/m W 1,00 h 730 W/m 6,8 km/h (2 Bft)
22.04.2015 12:00 19,1 C 35 % 1020,6 hPa 0,0 l/m W-NW 1,00 h 808 W/m 13,7 km/h (3 Bft)
22.04.2015 13:00 20,5 C 34 % 1019,6 hPa 0,0 l/m NW 1,00 h 820 W/m 15,6 km/h (3 Bft)
22.04.2015 14:00 21,4 C 32 % 1018,8 hPa 0,0 l/m NW 1,00 h 801 W/m 14,4 km/h (3 Bft)
22.04.2015 15:00 21,7 C 25 % 1017,9 hPa 0,0 l/m N-NW 1,00 h 740 W/m 16,2 km/h (3 Bft)
22.04.2015 16:00 21,5 C 28 % 1017,3 hPa 0,0 l/m N-NW 1,00 h 580 W/m 17,3 km/h (3 Bft)
22.04.2015 17:00 20,3 C 32 % 1016,8 hPa 0,0 l/m N-NO 1,00 h 453 W/m 22,3 km/h (4 Bft)
22.04.2015 18:00 17,8 C 34 % 1016,8 hPa 0,0 l/m N-NO 1,00 h 271 W/m 21,0 km/h (4 Bft)
22.04.2015 19:00 16,0 C 31 % 1017,2 hPa 0,0 l/m N-NO 0,33 h 67 W/m 16,8 km/h (3 Bft)
22.04.2015 20:00 13,1 C 38 % 1017,8 hPa 0,0 l/m N-NO 0,08 h 8 W/m 11,7 km/h (2 Bft)
22.04.2015 21:00 11,2 C 47 % 1018,6 hPa 0,0 l/m NO 0,00 h 0 W/m 11,0 km/h (2 Bft)
22.04.2015 22:00 9,7 C 61 % 1019,5 hPa 0,0 l/m O-NO 0,00 h 0 W/m 15,6 km/h (3 Bft)
22.04.2015 23:00 7,9 C 66 % 1019,6 hPa 0,0 l/m O-NO 0,00 h 0 W/m 9,4 km/h (2 Bft)
23.04.2015 00:00 6,7 C 68 % 1019,4 hPa 0,0 l/m O-NO 0,00 h 0 W/m 3,7 km/h (1 Bft)
23.04.2015 01:00 5,2 C 74 % 1019,2 hPa 0,0 l/m O-NO 0,00 h 0 W/m 3,1 km/h (1 Bft)
23.04.2015 02:00 4,5 C 76 % 1018,5 hPa 0,0 l/m O-NO 0,00 h 0 W/m 4,9 km/h (1 Bft)
23.04.2015 03:00 3,7 C 78 % 1018,2 hPa 0,0 l/m O-NO 0,00 h 0 W/m 4,8 km/h (1 Bft)
23.04.2015 04:00 2,9 C 80 % 1017,8 hPa 0,0 l/m O-NO 0,00 h 0 W/m 2,0 km/h (1 Bft)
23.04.2015 05:00 2,1 C 83 % 1017,4 hPa 0,0 l/m N 0,00 h 0 W/m 0,5 km/h (0 Bft)
23.04.2015 06:00 1,4 C 85 % 1017,3 hPa 0,0 l/m O-NO 0,00 h 13 W/m 1,2 km/h (1 Bft)
23.04.2015 07:00 2,6 C 85 % 1017,3 hPa 0,0 l/m O-NO 0,25 h 91 W/m 2,7 km/h (1 Bft)
23.04.2015 08:00 5,1 C 76 % 1017,2 hPa 0,0 l/m O-NO 1,00 h 271 W/m 4,9 km/h (1 Bft)
23.04.2015 09:00 7,3 C 65 % 1017,0 hPa 0,0 l/m O 1,00 h 446 W/m 8,9 km/h (2 Bft)
23.04.2015 10:00 8,8 C 55 % 1016,9 hPa 0,0 l/m N-NO 1,00 h 600 W/m 11,3 km/h (2 Bft)
23.04.2015 11:00 9,6 C 52 % 1016,6 hPa 0,0 l/m O-NO 1,00 h 725 W/m 8,0 km/h (2 Bft)
23.04.2015 12:00 11,3 C 47 % 1016,1 hPa 0,0 l/m N-NO 1,00 h 809 W/m 10,9 km/h (2 Bft)
23.04.2015 13:00 12,6 C 45 % 1015,5 hPa 0,0 l/m N 1,00 h 840 W/m 11,4 km/h (2 Bft)
23.04.2015 14:00 13,8 C 42 % 1015,0 hPa 0,0 l/m N 0,83 h 691 W/m 12,9 km/h (3 Bft)
23.04.2015 15:00 14,8 C 41 % 1014,2 hPa 0,0 l/m N-NO 1,00 h 729 W/m 12,9 km/h (3 Bft)
23.04.2015 16:00 14,9 C 42 % 1013,7 hPa 0,0 l/m N-NO 1,00 h 609 W/m 15,6 km/h (3 Bft)
23.04.2015 17:00 14,5 C 44 % 1013,8 hPa 0,0 l/m NO 1,00 h 450 W/m 16,2 km/h (3 Bft)
23.04.2015 18:00 13,6 C 46 % 1014,0 hPa 0,0 l/m O-NO 1,00 h 275 W/m 15,8 km/h (3 Bft)
23.04.2015 19:00 11,8 C 52 % 1014,5 hPa 0,0 l/m O-NO 0,42 h 68 W/m 16,0 km/h (3 Bft)
23.04.2015 20:00 9,7 C 61 % 1015,1 hPa 0,0 l/m O-NO 0,08 h 9 W/m 7,2 km/h (2 Bft)
23.04.2015 21:00 8,3 C 65 % 1015,6 hPa 0,0 l/m NO 0,00 h 0 W/m 3,3 km/h (1 Bft)
23.04.2015 22:00 6,2 C 74 % 1015,5 hPa 0,0 l/m N 0,00 h 0 W/m 0,1 km/h (0 Bft)
23.04.2015 23:00 4,9 C 78 % 1015,8 hPa 0,0 l/m N 0,00 h 0 W/m 0,3 km/h (0 Bft)
24.04.2015 00:00 4,4 C 79 % 1015,7 hPa 0,0 l/m NO 0,00 h 0 W/m 1,3 km/h (1 Bft)
24.04.2015 01:00 3,8 C 79 % 1015,6 hPa 0,0 l/m N 0,00 h 0 W/m 1,3 km/h (1 Bft)
24.04.2015 02:00 3,1 C 82 % 1015,3 hPa 0,0 l/m NO 0,00 h 0 W/m 0,7 km/h (0 Bft)
24.04.2015 03:00 2,4 C 83 % 1015,1 hPa 0,0 l/m N 0,00 h 0 W/m 0,0 km/h (0 Bft)
24.04.2015 04:00 1,8 C 85 % 1014,9 hPa 0,0 l/m N 0,00 h 0 W/m 0,4 km/h (0 Bft)
24.04.2015 05:00 1,3 C 86 % 1014,9 hPa 0,0 l/m N 0,00 h 0 W/m 0,0 km/h (0 Bft)
24.04.2015 06:00 0,8 C 87 % 1015,1 hPa 0,0 l/m N 0,00 h 13 W/m 0,3 km/h (0 Bft)
24.04.2015 07:00 2,0 C 88 % 1015,4 hPa 0,0 l/m N 0,17 h 94 W/m 0,3 km/h (0 Bft)
24.04.2015 08:00 5,3 C 81 % 1015,7 hPa 0,0 l/m N 1,00 h 267 W/m 1,9 km/h (1 Bft)
24.04.2015 09:00 8,8 C 69 % 1015,7 hPa 0,0 l/m NO 1,00 h 439 W/m 3,2 km/h (1 Bft)
24.04.2015 10:00 11,7 C 62 % 1015,4 hPa 0,0 l/m S-SO 0,92 h 575 W/m 7,1 km/h (2 Bft)
24.04.2015 11:00 14,5 C 53 % 1015,1 hPa 0,0 l/m S 1,00 h 727 W/m 10,6 km/h (2 Bft)
24.04.2015 12:00 15,9 C 49 % 1014,6 hPa 0,0 l/m SW 1,00 h 804 W/m 14,5 km/h (3 Bft)
24.04.2015 13:00 17,8 C 42 % 1013,9 hPa 0,0 l/m SW 1,00 h 842 W/m 17,0 km/h (3 Bft)
24.04.2015 14:00 19,3 C 33 % 1013,2 hPa 0,0 l/m SW 1,00 h 824 W/m 18,5 km/h (3 Bft)
24.04.2015 15:00 20,2 C 28 % 1012,7 hPa 0,0 l/m W-SW 1,00 h 755 W/m 17,7 km/h (3 Bft)
24.04.2015 16:00 20,6 C 25 % 1012,1 hPa 0,0 l/m SW 1,00 h 637 W/m 16,4 km/h (3 Bft)
24.04.2015 17:00 20,6 C 28 % 1011,7 hPa 0,0 l/m SW 1,00 h 472 W/m 13,0 km/h (3 Bft)
24.04.2015 18:00 19,9 C 33 % 1011,5 hPa 0,0 l/m SW 1,00 h 268 W/m 10,9 km/h (2 Bft)
24.04.2015 19:00 17,8 C 39 % 1011,1 hPa 0,0 l/m SW 0,08 h 48 W/m 5,9 km/h (2 Bft)
24.04.2015 20:00 14,5 C 51 % 1011,2 hPa 0,0 l/m N 0,00 h 12 W/m 0,4 km/h (0 Bft)
24.04.2015 21:00 11,8 C 59 % 1011,5 hPa 0,0 l/m N 0,00 h 0 W/m 0,0 km/h (0 Bft)
24.04.2015 22:00 10,3 C 62 % 1011,7 hPa 0,0 l/m SW 0,00 h 0 W/m 0,8 km/h (0 Bft)
24.04.2015 23:00 8,9 C 67 % 1011,7 hPa 0,0 l/m N 0,00 h 0 W/m 0,1 km/h (0 Bft)
25.04.2015 00:00 8,0 C 68 % 1011,6 hPa 0,0 l/m N 0,00 h 0 W/m 0,0 km/h (0 Bft)
25.04.2015 01:00 7,2 C 71 % 1011,3 hPa 0,0 l/m N 0,00 h 0 W/m 0,1 km/h (0 Bft)
25.04.2015 02:00 6,2 C 74 % 1011,0 hPa 0,0 l/m N 0,00 h 0 W/m 0,0 km/h (0 Bft)
25.04.2015 03:00 5,5 C 76 % 1010,6 hPa 0,0 l/m N 0,00 h 0 W/m 0,0 km/h (0 Bft)
25.04.2015 04:00 4,8 C 79 % 1010,2 hPa 0,0 l/m N 0,00 h 0 W/m 0,0 km/h (0 Bft)
25.04.2015 05:00 4,4 C 83 % 1010,0 hPa 0,0 l/m N 0,00 h 0 W/m 0,0 km/h (0 Bft)
25.04.2015 06:00 4,2 C 85 % 1010,0 hPa 0,0 l/m N 0,00 h 13 W/m 0,0 km/h (0 Bft)
25.04.2015 07:00 5,2 C 86 % 1010,3 hPa 0,0 l/m N 0,00 h 62 W/m 0,0 km/h (0 Bft)
25.04.2015 08:00 8,5 C 79 % 1010,8 hPa 0,0 l/m SW 0,08 h 138 W/m 3,2 km/h (1 Bft)
25.04.2015 09:00 11,6 C 71 % 1010,9 hPa 0,0 l/m SW 0,17 h 185 W/m 6,2 km/h (2 Bft)
25.04.2015 10:00 13,9 C 64 % 1010,8 hPa 0,0 l/m S-SW 0,50 h 374 W/m 9,1 km/h (2 Bft)
25.04.2015 11:00 17,2 C 55 % 1010,7 hPa 0,0 l/m W 0,75 h 499 W/m 17,8 km/h (3 Bft)
25.04.2015 12:00 18,3 C 51 % 1010,3 hPa 0,0 l/m SW 1,00 h 585 W/m 23,6 km/h (4 Bft)
25.04.2015 13:00 18,7 C 49 % 1009,7 hPa 0,0 l/m W-SW 0,25 h 377 W/m 26,4 km/h (4 Bft)
25.04.2015 14:00 17,3 C 54 % 1009,7 hPa 0,0 l/m W-SW 0,00 h 155 W/m 18,6 km/h (3 Bft)
25.04.2015 15:00 16,5 C 60 % 1009,6 hPa 0,0 l/m SW 0,00 h 151 W/m 17,4 km/h (3 Bft)
25.04.2015 16:00 16,1 C 65 % 1009,4 hPa 0,0 l/m SW 0,00 h 82 W/m 12,4 km/h (3 Bft)
25.04.2015 17:00 13,8 C 81 % 1010,1 hPa 0,2 l/m W-SW 0,00 h 66 W/m 11,8 km/h (2 Bft)
25.04.2015 18:00 13,0 C 88 % 1010,1 hPa 0,2 l/m W-SW 0,00 h 25 W/m 5,1 km/h (1 Bft)
25.04.2015 19:00 12,4 C 92 % 1010,1 hPa 0,0 l/m W-SW 0,00 h 17 W/m 5,9 km/h (2 Bft)
25.04.2015 20:00 11,8 C 93 % 1010,0 hPa 0,0 l/m W-SW 0,00 h 5 W/m 5,2 km/h (1 Bft)
25.04.2015 21:00 11,1 C 94 % 1010,1 hPa 0,0 l/m W-SW 0,00 h 0 W/m 2,0 km/h (1 Bft)
25.04.2015 22:00 11,0 C 95 % 1010,2 hPa 0,0 l/m W-SW 0,00 h 0 W/m 2,8 km/h (1 Bft)
25.04.2015 23:00 11,6 C 92 % 1010,5 hPa 0,6 l/m W-SW 0,00 h 0 W/m 11,4 km/h (2 Bft)
26.04.2015 00:00 11,3 C 93 % 1010,8 hPa 0,6 l/m SW 0,00 h 0 W/m 8,6 km/h (2 Bft)
26.04.2015 01:00 10,9 C 95 % 1010,7 hPa 0,0 l/m SW 0,00 h 0 W/m 8,3 km/h (2 Bft)
26.04.2015 02:00 10,7 C 96 % 1010,3 hPa 0,0 l/m SW 0,00 h 0 W/m 9,3 km/h (2 Bft)
26.04.2015 03:00 10,4 C 96 % 1010,0 hPa 0,0 l/m SW 0,00 h 0 W/m 10,6 km/h (2 Bft)
26.04.2015 04:00 9,9 C 97 % 1009,7 hPa 0,0 l/m SW 0,00 h 0 W/m 7,9 km/h (2 Bft)
26.04.2015 05:00 9,8 C 97 % 1009,3 hPa 0,0 l/m SW 0,00 h 0 W/m 5,7 km/h (1 Bft)
26.04.2015 06:00 9,3 C 97 % 1009,1 hPa 0,0 l/m SW 0,08 h 18 W/m 2,1 km/h (1 Bft)
26.04.2015 07:00 9,8 C 97 % 1009,3 hPa 0,0 l/m SW 0,50 h 111 W/m 4,7 km/h (1 Bft)
26.04.2015 08:00 11,6 C 93 % 1009,2 hPa 0,0 l/m S-SW 0,67 h 220 W/m 7,9 km/h (2 Bft)
26.04.2015 09:00 13,1 C 87 % 1008,9 hPa 0,0 l/m S 0,67 h 358 W/m 6,6 km/h (2 Bft)
26.04.2015 10:00 14,7 C 81 % 1008,6 hPa 0,0 l/m SW 0,58 h 508 W/m 9,3 km/h (2 Bft)
26.04.2015 11:00 16,5 C 71 % 1008,2 hPa 0,0 l/m SW 1,00 h 761 W/m 12,9 km/h (3 Bft)
26.04.2015 12:00 17,2 C 65 % 1007,7 hPa 0,0 l/m SW 0,25 h 341 W/m 9,7 km/h (2 Bft)
26.04.2015 13:00 17,6 C 62 % 1006,9 hPa 0,0 l/m SW 0,33 h 406 W/m 8,6 km/h (2 Bft)
26.04.2015 14:00 18,1 C 61 % 1006,2 hPa 0,0 l/m SW 0,33 h 366 W/m 10,5 km/h (2 Bft)
26.04.2015 15:00 18,9 C 54 % 1005,4 hPa 0,0 l/m W-SW 0,75 h 485 W/m 11,3 km/h (2 Bft)
26.04.2015 16:00 19,1 C 53 % 1004,5 hPa 0,0 l/m NW 0,50 h 330 W/m 5,6 km/h (1 Bft)
26.04.2015 17:00 19,3 C 52 % 1003,8 hPa 0,0 l/m NW 0,33 h 236 W/m 4,0 km/h (1 Bft)
26.04.2015 18:00 18,8 C 53 % 1003,1 hPa 0,0 l/m N-NW 0,00 h 113 W/m 5,2 km/h (1 Bft)
26.04.2015 19:00 18,1 C 56 % 1002,6 hPa 0,0 l/m N 0,00 h 54 W/m 3,5 km/h (1 Bft)
26.04.2015 20:00 16,2 C 66 % 1002,3 hPa 0,0 l/m N 0,17 h 15 W/m 0,7 km/h (0 Bft)
26.04.2015 21:00 13,8 C 76 % 1002,6 hPa 0,0 l/m N 0,00 h 0 W/m 2,0 km/h (1 Bft)
26.04.2015 22:00 13,0 C 79 % 1002,3 hPa 0,0 l/m N 0,00 h 0 W/m 0,8 km/h (0 Bft)
26.04.2015 23:00 12,4 C 80 % 1001,9 hPa 0,0 l/m N 0,00 h 0 W/m 2,5 km/h (1 Bft)
Min-Datum _ 24.04.15 22.04.15 26.04.15 - - - - 20.04.15
_ Min-Zeit 06:40 15:30 23:40 - - - - 00:05
Minimum _ 0,7 C 23 % 1001,7 hPa - - - - 0,0 km/h (0 Bft)
Max-Datum _ 22.04.15 26.04.15 21.04.15 25.04.15 - 20.04.15 26.04.15 25.04.15
_ Max-Zeit 15:50 07:10 11:50 23:20 - 07:35 11:50 13:15
Maximum _ 21,9 C 98 % 1027,3 hPa 0,6 l/m - 0,08 h 863 W/m 40,2 km/h
W-SW (6 Bft)
Durchschnitt _ 11,3 C 63 % 1016,6 hPa #1,6 l/m SW #66:30 h 385 W/m 7,3 km/h (2 Bft)